»·PEaware :: N16RD KBFL-KSMX

N16RD :: KBFL-KSMX

FLIGHT INFORMATION

Flight Status: Arrived
Operator: Privately registered:
United States
More flights under this callsign
Pilot: Brett B. (12105)
Aircraft: Unknown
(172)
More flights by this aircraft type
Origin: KBFL Meadows
United States
Destination: KSMX Santa Maria Pub/Capt Hancock
United States
More flights between these airports :: More routes between these airports
Route: +KBFL FLW KSMX
File this flight plan on PilotEdge
Remarks:
Altitude:
(Current/Filed)
0ft
Speed:
(Current/Filed)
135kts
Departed: 25-Jan-19 07:14 PM
Arrived: 25-Jan-19 07:47 PM
Distance/Time
Traveled:
75nm/0:33
Distance/Time
To Go:
Arrived

Flight Plot

Page will automatically refresh every two minutes.

Flight plan parsing failed; only flown route is shown


Map Options




Map Legend


Flown Route
Filed Route
Departure Airport
Arrival Airport
Navaid (VOR, NDB)
Fix

Horizontal Profiles

Position Reports

Time Latitude Longitude Heading Altitude Ground
Speed
25-Jan-19 18:45 35.426389 -119.054554 61 510ft 0kts
25-Jan-19 18:46 35.426389 -119.054554 61 510ft 0kts
25-Jan-19 18:47 35.426389 -119.054554 61 510ft 0kts
25-Jan-19 18:48 35.426389 -119.054554 61 510ft 0kts
25-Jan-19 18:49 35.426389 -119.054554 61 510ft 0kts
25-Jan-19 18:50 35.426389 -119.054554 61 510ft 0kts
25-Jan-19 18:51 35.426389 -119.054554 61 510ft 0kts
25-Jan-19 18:52 35.426389 -119.054554 61 510ft 0kts
25-Jan-19 18:53 35.426389 -119.054554 61 510ft 0kts
25-Jan-19 18:54 35.426389 -119.054554 61 510ft 0kts
25-Jan-19 18:55 35.426389 -119.054554 61 510ft 0kts
25-Jan-19 18:56 35.426389 -119.054554 61 510ft 0kts
25-Jan-19 18:57 35.426389 -119.054554 61 510ft 0kts
25-Jan-19 18:58 35.426389 -119.054554 61 510ft 0kts
25-Jan-19 18:59 35.426389 -119.054554 61 510ft 0kts
25-Jan-19 19:00 35.426389 -119.054554 61 510ft 0kts
25-Jan-19 19:01 35.426389 -119.054554 61 510ft 0kts
25-Jan-19 19:02 35.426389 -119.054554 61 510ft 0kts
25-Jan-19 19:03 35.426389 -119.054554 61 510ft 0kts
25-Jan-19 19:04 35.426389 -119.054554 61 510ft 0kts
25-Jan-19 19:05 35.426389 -119.054554 61 510ft 0kts
25-Jan-19 19:07 35.426389 -119.054554 61 510ft 0kts
25-Jan-19 19:08 35.426391 -119.054551 60 510ft 0kts
25-Jan-19 19:09 35.426413 -119.054472 91 510ft 4kts
25-Jan-19 19:10 35.424232 -119.052430 142 510ft 11kts
25-Jan-19 19:11 35.424057 -119.049606 92 510ft 0kts
25-Jan-19 19:12 35.424056 -119.049589 92 510ft 0kts
25-Jan-19 19:13 35.424404 -119.048323 318 510ft 0kts
25-Jan-19 19:14 35.437123 -119.063324 315 1000ft 104kts
25-Jan-19 19:15 35.450916 -119.095487 264 2180ft 118kts
25-Jan-19 19:16 35.434382 -119.130941 238 3204ft 121kts
25-Jan-19 19:17 35.416882 -119.165735 238 4193ft 118kts
25-Jan-19 19:18 35.400086 -119.199169 238 5171ft 112kts
25-Jan-19 19:19 35.382906 -119.229395 233 6137ft 102kts
25-Jan-19 19:20 35.367169 -119.256512 235 7087ft 93kts
25-Jan-19 19:21 35.354413 -119.282343 239 8022ft 83kts
25-Jan-19 19:22 35.339378 -119.317583 243 8420ft 169kts
25-Jan-19 19:23 35.319334 -119.366098 245 8408ft 157kts
25-Jan-19 19:24 35.296198 -119.413859 235 8430ft 163kts
25-Jan-19 19:25 35.260872 -119.452549 217 7903ft 179kts
25-Jan-19 19:26 35.234651 -119.503310 248 7149ft 180kts
25-Jan-19 19:27 35.213697 -119.559155 248 6512ft 174kts
25-Jan-19 19:28 35.194106 -119.611594 248 6472ft 162kts
25-Jan-19 19:28 35.178494 -119.653026 248 6471ft 159kts
25-Jan-19 19:29 35.161370 -119.698377 248 6469ft 158kts
25-Jan-19 19:30 35.144809 -119.748982 254 6493ft 156kts
25-Jan-19 19:31 35.125678 -119.791495 242 7238ft 135kts
25-Jan-19 19:33 35.103059 -119.843280 240 7436ft 159kts
25-Jan-19 19:33 35.082036 -119.880891 239 7418ft 160kts
25-Jan-19 19:34 35.061286 -119.928251 258 7422ft 157kts
25-Jan-19 19:35 35.049629 -119.981965 259 7409ft 162kts
25-Jan-19 19:36 35.038147 -120.033723 259 7418ft 155kts
25-Jan-19 19:37 35.021673 -120.081354 244 7494ft 163kts
25-Jan-19 19:38 34.997607 -120.132898 244 6753ft 181kts
25-Jan-19 19:39 34.972876 -120.187515 244 5785ft 178kts
25-Jan-19 19:40 34.950575 -120.237388 244 4817ft 170kts
25-Jan-19 19:41 34.929641 -120.284809 244 3867ft 165kts
25-Jan-19 19:42 34.909689 -120.330179 244 3480ft 146kts
25-Jan-19 19:43 34.890943 -120.372535 244 2612ft 144kts
25-Jan-19 19:44 34.878393 -120.411897 273 1500ft 96kts
25-Jan-19 19:45 34.885463 -120.437104 314 683ft 79kts
25-Jan-19 19:46 34.898082 -120.452161 319 264ft 20kts
25-Jan-19 19:47 34.899017 -120.449435 55 264ft 11kts
25-Jan-19 19:48 34.898873 -120.448568 61 264ft 0kts
25-Jan-19 19:49 34.898873 -120.448568 61 264ft 0kts
25-Jan-19 19:50 34.898873 -120.448568 61 264ft 0kts
25-Jan-19 19:51 34.898873 -120.448568 61 264ft 0kts
25-Jan-19 19:52 34.898873 -120.448568 61 264ft 0kts
25-Jan-19 19:53 34.898873 -120.448568 61 264ft 0kts
25-Jan-19 19:54 34.898873 -120.448568 61 264ft 0kts
25-Jan-19 19:55 34.898873 -120.448568 61 264ft 0kts
25-Jan-19 19:56 34.898873 -120.448568 61 264ft 0kts
25-Jan-19 19:57 34.898873 -120.448568 61 264ft 0kts
25-Jan-19 19:58 34.898873 -120.448568 61 264ft 0kts
25-Jan-19 19:59 34.898873 -120.448568 61 264ft 0kts
25-Jan-19 20:00 34.898873 -120.448568 61 264ft 0kts

Navigation Log

Ident Type
Flight plan parsing failed, navigation log unavailable